Time;durP1;ratioP1;P1;durP2;ratioP2;P2;SDS_P1;SDS_P2;PMS_P1;PMS_P2;Temp;Humidity;BMP_temperature;BMP_pressure;BME280_temperature;BME280_humidity;BME280_pressure;Samples;Min_cycle;Max_cycle;Signal;HPM_P1;HPM_P2
2023/04/08 00:00:02;;;;;;;;;;;8.80;99.90;;;;;;6210416;23;20229;-88
2023/04/08 00:02:28;;;;;;;;;;;8.50;99.90;;;;;;6210745;23;19958;-87
2023/04/08 00:04:54;;;;;;;;;;;8.30;99.90;;;;;;6210674;23;19908;-87
2023/04/08 00:07:19;;;;;;;;;;;8.30;99.90;;;;;;6234245;23;19904;-87
2023/04/08 00:09:45;;;;;;;;;;;8.50;99.90;;;;;;6210278;23;19942;-88
2023/04/08 00:12:10;;;;;;;;;;;8.70;99.90;;;;;;6235390;23;19904;-89
2023/04/08 00:14:37;;;;;;;;;;;8.30;99.90;;;;;;6209092;23;19904;-87
2023/04/08 00:17:02;;;;;;;;;;;8.30;99.90;;;;;;6211007;23;19904;-87
2023/04/08 00:19:28;;;;;;;;;;;8.30;99.90;;;;;;6210689;23;19935;-87
2023/04/08 00:21:53;;;;;;;;;;;8.50;99.90;;;;;;6210676;23;19915;-88
2023/04/08 00:24:19;;;;;;;;;;;8.40;99.90;;;;;;6210192;23;19912;-88
2023/04/08 00:26:44;;;;;;;;;;;8.50;99.90;;;;;;6210206;23;19927;-88
2023/04/08 00:29:10;;;;;;;;;;;8.20;99.90;;;;;;6209892;23;19915;-89
2023/04/08 00:31:35;;;;;;;;;;;8.40;99.90;;;;;;6210603;23;19911;-87
2023/04/08 00:34:01;;;;;;;;;;;8.60;99.90;;;;;;6209357;23;19910;-89
2023/04/08 00:36:27;;;;;;;;;;;8.30;99.90;;;;;;6210424;23;20344;-87
2023/04/08 00:38:52;;;;;;;;;;;8.20;99.90;;;;;;6210145;23;19904;-88
2023/04/08 00:41:18;;;;;;;;;;;8.60;99.90;;;;;;6210840;23;19936;-90
2023/04/08 00:43:44;;;;;;;;;;;8.20;99.90;;;;;;6211453;23;19951;-88
2023/04/08 00:46:09;;;;;;;;;;;8.40;99.90;;;;;;6210760;23;19904;-88
2023/04/08 00:48:35;;;;;;;;;;;8.60;99.90;;;;;;6208909;23;20344;-89
2023/04/08 00:51:01;;;;;;;;;;;8.20;99.90;;;;;;6210323;23;19904;-88
2023/04/08 00:53:26;;;;;;;;;;;8.50;99.90;;;;;;6210568;23;19907;-88
2023/04/08 00:55:51;;;;;;;;;;;9.30;99.90;;;;;;6210517;23;19983;-88
2023/04/08 00:58:17;;;;;;;;;;;8.20;99.90;;;;;;6210276;23;19985;-90
2023/04/08 01:00:48;;;;;;;;;;;8.20;99.90;;;;;;6209597;23;19907;-87
2023/04/08 01:03:16;;;;;;;;;;;7.80;99.90;;;;;;6211449;23;19927;-87
2023/04/08 01:05:54;;;;;;;;;;;8.20;99.90;;;;;;6214914;23;19919;-88
2023/04/08 01:08:20;;;;;;;;;;;8.20;99.90;;;;;;6218322;23;19935;-87
2023/04/08 01:10:49;;;;;;;;;;;8.60;99.90;;;;;;6211702;23;19911;-86
2023/04/08 01:13:16;;;;;;;;;;;8.00;99.90;;;;;;6213244;23;19904;-86
2023/04/08 01:15:43;;;;;;;;;;;8.80;99.90;;;;;;6213424;23;19935;-86
2023/04/08 01:18:11;;;;;;;;;;;8.10;99.90;;;;;;6211972;23;19911;-86
2023/04/08 01:20:37;;;;;;;;;;;8.30;99.90;;;;;;6210693;23;20001;-87
2023/04/08 01:23:09;;;;;;;;;;;8.80;99.90;;;;;;6210047;23;19986;-87
2023/04/08 01:25:36;;;;;;;;;;;8.00;99.90;;;;;;6212270;23;19919;-88
2023/04/08 01:28:10;;;;;;;;;;;8.20;99.90;;;;;;6210425;23;20295;-88
2023/04/08 01:30:38;;;;;;;;;;;8.10;99.90;;;;;;6210411;23;20155;-88
2023/04/08 01:33:04;;;;;;;;;;;8.10;99.90;;;;;;6212136;23;19971;-88
2023/04/08 01:35:31;;;;;;;;;;;8.20;99.90;;;;;;6212020;23;19910;-87
2023/04/08 01:37:56;;;;;;;;;;;8.50;99.90;;;;;;6212184;23;19930;-87
2023/04/08 01:40:22;;;;;;;;;;;8.30;99.90;;;;;;6210573;23;20329;-87
2023/04/08 01:42:49;;;;;;;;;;;8.10;99.90;;;;;;6211913;23;20229;-87
2023/04/08 01:45:15;;;;;;;;;;;8.50;99.90;;;;;;6212520;23;19928;-87
2023/04/08 01:47:42;;;;;;;;;;;8.40;99.90;;;;;;6210344;23;19958;-87
2023/04/08 01:50:08;;;;;;;;;;;8.30;99.90;;;;;;6211860;23;19904;-86
2023/04/08 01:52:34;;;;;;;;;;;8.10;99.90;;;;;;6211894;23;20359;-86
2023/04/08 01:55:00;;;;;;;;;;;8.10;99.90;;;;;;6211712;23;20347;-87
2023/04/08 01:57:30;;;;;;;;;;;8.30;99.90;;;;;;6235442;23;19911;-88
2023/04/08 01:59:59;;;;;;;;;;;8.10;99.90;;;;;;6211466;23;20325;-88
2023/04/08 02:02:25;;;;;;;;;;;8.10;99.90;;;;;;6211620;23;19904;-87
2023/04/08 02:04:52;;;;;;;;;;;9.30;99.90;;;;;;6211731;23;19950;-86
2023/04/08 02:07:18;;;;;;;;;;;8.10;99.90;;;;;;6212147;23;19904;-86
2023/04/08 02:09:43;;;;;;;;;;;8.00;99.90;;;;;;6212937;23;20359;-86
2023/04/08 02:12:09;;;;;;;;;;;8.20;99.90;;;;;;6211611;23;20026;-88
2023/04/08 02:14:35;;;;;;;;;;;8.00;99.90;;;;;;6211703;23;20324;-87
2023/04/08 02:17:23;;;;;;;;;;;8.00;99.90;;;;;;6211711;23;19911;-88
2023/04/08 02:19:52;;;;;;;;;;;8.00;99.90;;;;;;6208923;23;20253;-88
2023/04/08 02:22:50;;;;;;;;;;;8.00;99.90;;;;;;6236329;23;19931;-87
2023/04/08 02:25:17;;;;;;;;;;;7.90;99.90;;;;;;6194794;23;19915;-86
2023/04/08 02:27:43;;;;;;;;;;;8.00;99.90;;;;;;6211495;23;19939;-86
2023/04/08 02:30:10;;;;;;;;;;;8.00;99.90;;;;;;6211639;23;20368;-86
2023/04/08 02:32:35;;;;;;;;;;;8.00;99.90;;;;;;6211435;23;19904;-86
2023/04/08 02:35:02;;;;;;;;;;;7.70;99.90;;;;;;6211435;23;19942;-88
2023/04/08 02:37:29;;;;;;;;;;;8.50;99.90;;;;;;6211490;23;20249;-87
2023/04/08 02:39:54;;;;;;;;;;;7.90;99.90;;;;;;6211759;23;19983;-88
2023/04/08 02:42:20;;;;;;;;;;;8.40;99.90;;;;;;6211160;23;19951;-88
2023/04/08 02:44:45;;;;;;;;;;;8.10;99.90;;;;;;6212357;23;19919;-87
2023/04/08 02:47:11;;;;;;;;;;;8.10;99.90;;;;;;6210007;23;19975;-86
2023/04/08 02:49:36;;;;;;;;;;;7.60;99.90;;;;;;6211325;23;20291;-89
2023/04/08 02:52:02;;;;;;;;;;;7.80;99.90;;;;;;6211107;23;19911;-89
2023/04/08 02:54:27;;;;;;;;;;;8.20;99.90;;;;;;6211378;23;19958;-87
2023/04/08 02:56:53;;;;;;;;;;;7.90;99.90;;;;;;6211304;23;20006;-89
2023/04/08 02:59:18;;;;;;;;;;;7.80;99.90;;;;;;6211952;23;19904;-88
2023/04/08 03:01:44;;;;;;;;;;;8.10;99.90;;;;;;6211378;23;20249;-87
2023/04/08 03:04:09;;;;;;;;;;;7.60;99.90;;;;;;6210733;23;20129;-88
2023/04/08 03:06:35;;;;;;;;;;;7.90;99.90;;;;;;6210664;23;19938;-87
2023/04/08 03:09:00;;;;;;;;;;;8.20;99.90;;;;;;6209711;23;19904;-89
2023/04/08 03:11:26;;;;;;;;;;;7.30;99.90;;;;;;6209677;23;19911;-88
2023/04/08 03:13:51;;;;;;;;;;;9.00;99.90;;;;;;6211180;23;19904;-87
2023/04/08 03:16:17;;;;;;;;;;;8.00;99.90;;;;;;6210563;23;19904;-87
2023/04/08 03:18:42;;;;;;;;;;;8.00;99.90;;;;;;6210876;23;19904;-87
2023/04/08 03:21:08;;;;;;;;;;;7.50;99.90;;;;;;6210849;23;20321;-87
2023/04/08 03:23:33;;;;;;;;;;;7.70;99.90;;;;;;6211027;23;19923;-89
2023/04/08 03:25:59;;;;;;;;;;;8.20;99.90;;;;;;6209493;23;19935;-89
2023/04/08 03:28:24;;;;;;;;;;;7.90;99.90;;;;;;6209321;23;19927;-88
2023/04/08 03:30:50;;;;;;;;;;;7.60;99.90;;;;;;6211302;23;19910;-88
2023/04/08 03:33:15;;;;;;;;;;;7.60;99.90;;;;;;6209041;23;19904;-87
2023/04/08 03:35:41;;;;;;;;;;;7.70;99.90;;;;;;6211003;23;20135;-86
2023/04/08 03:38:07;;;;;;;;;;;7.80;99.90;;;;;;6210881;23;19978;-86
2023/04/08 03:40:32;;;;;;;;;;;8.00;99.90;;;;;;6211117;23;19911;-89
2023/04/08 03:42:58;;;;;;;;;;;8.20;99.90;;;;;;6210389;23;19912;-88
2023/04/08 03:45:23;;;;;;;;;;;8.00;99.90;;;;;;6210800;23;19930;-87
2023/04/08 03:47:49;;;;;;;;;;;7.70;99.90;;;;;;6212195;23;20256;-90
2023/04/08 03:50:14;;;;;;;;;;;7.60;99.90;;;;;;6210459;23;19928;-87
2023/04/08 03:52:40;;;;;;;;;;;7.50;99.90;;;;;;6209234;23;20363;-88
2023/04/08 03:55:06;;;;;;;;;;;7.50;99.90;;;;;;6234459;23;19904;-86
2023/04/08 03:57:31;;;;;;;;;;;7.50;99.90;;;;;;6210768;23;19904;-88
2023/04/08 03:59:57;;;;;;;;;;;8.10;99.90;;;;;;6209233;23;19903;-87
2023/04/08 04:02:22;;;;;;;;;;;7.10;99.90;;;;;;6211772;23;19919;-86
2023/04/08 04:04:48;;;;;;;;;;;7.40;99.90;;;;;;6209963;23;19975;-87
2023/04/08 04:07:13;;;;;;;;;;;8.50;99.90;;;;;;6210302;23;20291;-87
2023/04/08 04:09:39;;;;;;;;;;;7.40;99.90;;;;;;6210292;23;19903;-87
2023/04/08 04:12:04;;;;;;;;;;;8.20;99.90;;;;;;6213243;23;19904;-87
2023/04/08 04:14:30;;;;;;;;;;;7.60;99.90;;;;;;6217329;23;19904;-87
2023/04/08 04:16:55;;;;;;;;;;;8.50;99.90;;;;;;6211921;23;19979;-87
2023/04/08 04:19:21;;;;;;;;;;;8.30;99.90;;;;;;6211709;23;20253;-87
2023/04/08 04:21:46;;;;;;;;;;;7.60;99.90;;;;;;6210129;23;19951;-87
2023/04/08 04:24:12;;;;;;;;;;;7.70;99.90;;;;;;6210508;23;19919;-88
2023/04/08 04:26:39;;;;;;;;;;;7.60;99.90;;;;;;6210697;23;19904;-87
2023/04/08 04:29:05;;;;;;;;;;;7.50;99.90;;;;;;6210398;23;19919;-86
2023/04/08 04:31:30;;;;;;;;;;;7.80;99.90;;;;;;6210201;23;19904;-86
2023/04/08 04:33:56;;;;;;;;;;;7.40;99.90;;;;;;6210674;23;20398;-88
2023/04/08 04:36:21;;;;;;;;;;;8.50;99.90;;;;;;6211700;23;19903;-88
2023/04/08 04:38:48;;;;;;;;;;;8.70;99.90;;;;;;6210514;23;19904;-88
2023/04/08 04:41:13;;;;;;;;;;;8.70;99.90;;;;;;6208973;23;19903;-86
2023/04/08 04:43:39;;;;;;;;;;;7.90;99.90;;;;;;6211169;23;19965;-86
2023/04/08 04:46:07;;;;;;;;;;;7.30;99.90;;;;;;6210940;23;20352;-87
2023/04/08 04:48:33;;;;;;;;;;;7.40;99.90;;;;;;6212544;23;19904;-88
2023/04/08 04:51:00;;;;;;;;;;;7.50;99.90;;;;;;6212416;23;19904;-88
2023/04/08 04:53:25;;;;;;;;;;;7.40;99.90;;;;;;6210973;23;19991;-87
2023/04/08 04:55:51;;;;;;;;;;;7.70;99.90;;;;;;6213087;23;19932;-87
2023/04/08 04:58:17;;;;;;;;;;;7.50;99.90;;;;;;6212387;23;19911;-86
2023/04/08 05:00:43;;;;;;;;;;;7.60;99.90;;;;;;6213816;23;19998;-88
2023/04/08 05:03:08;;;;;;;;;;;8.10;99.90;;;;;;6212328;23;19931;-87
2023/04/08 05:05:34;;;;;;;;;;;8.00;99.90;;;;;;6209677;23;19908;-88
2023/04/08 05:08:00;;;;;;;;;;;7.30;99.90;;;;;;6211433;23;19911;-88
2023/04/08 05:10:25;;;;;;;;;;;7.50;99.90;;;;;;6211953;23;19904;-86
2023/04/08 05:12:51;;;;;;;;;;;7.60;99.90;;;;;;6212191;23;20218;-88
2023/04/08 05:15:16;;;;;;;;;;;7.40;99.90;;;;;;6212338;23;19990;-88
2023/04/08 05:17:42;;;;;;;;;;;7.30;99.90;;;;;;6211377;23;20333;-87
2023/04/08 05:20:08;;;;;;;;;;;7.20;99.90;;;;;;6212374;23;19904;-86
2023/04/08 05:22:33;;;;;;;;;;;7.30;99.90;;;;;;6212005;23;19904;-88
2023/04/08 05:24:59;;;;;;;;;;;7.90;99.90;;;;;;6210834;23;19995;-89
2023/04/08 05:27:24;;;;;;;;;;;8.40;99.90;;;;;;6213541;23;20062;-88
2023/04/08 05:29:50;;;;;;;;;;;7.50;99.90;;;;;;6212016;23;19910;-90
2023/04/08 05:32:15;;;;;;;;;;;8.10;99.90;;;;;;6210050;23;20155;-89
2023/04/08 05:34:41;;;;;;;;;;;8.40;99.90;;;;;;6212322;23;19904;-89
2023/04/08 05:37:07;;;;;;;;;;;8.80;99.90;;;;;;6212778;23;19911;-90
2023/04/08 05:39:32;;;;;;;;;;;8.50;99.90;;;;;;6210703;23;20297;-88
2023/04/08 05:41:58;;;;;;;;;;;7.30;99.90;;;;;;6210236;23;19950;-88
2023/04/08 05:44:23;;;;;;;;;;;7.60;99.90;;;;;;6212434;23;20337;-90
2023/04/08 05:46:49;;;;;;;;;;;7.30;99.90;;;;;;6211056;23;19908;-91
2023/04/08 05:49:16;;;;;;;;;;;7.70;99.90;;;;;;6212976;23;20331;-89
2023/04/08 05:51:41;;;;;;;;;;;7.90;99.90;;;;;;6212532;23;19908;-91
2023/04/08 05:54:07;;;;;;;;;;;8.10;99.90;;;;;;6211511;23;20286;-89
2023/04/08 05:56:33;;;;;;;;;;;7.20;99.90;;;;;;6210778;23;19903;-89
2023/04/08 05:58:59;;;;;;;;;;;8.00;99.90;;;;;;6211343;23;19904;-90
2023/04/08 06:01:25;;;;;;;;;;;8.90;99.90;;;;;;6211854;23;20244;-90
2023/04/08 06:03:51;;;;;;;;;;;8.40;99.90;;;;;;6211828;23;19912;-90
2023/04/08 06:06:17;;;;;;;;;;;7.90;99.90;;;;;;6210894;23;19904;-87
2023/04/08 06:08:42;;;;;;;;;;;9.40;99.90;;;;;;6210141;23;19911;-84
2023/04/08 06:11:08;;;;;;;;;;;8.10;99.90;;;;;;6211233;23;19904;-86
2023/04/08 06:13:33;;;;;;;;;;;9.00;99.90;;;;;;6210237;23;19935;-84
2023/04/08 06:16:08;;;;;;;;;;;9.70;99.90;;;;;;6210989;23;19954;-87
2023/04/08 06:18:34;;;;;;;;;;;10.20;99.90;;;;;;6209352;23;19904;-87
2023/04/08 06:20:59;;;;;;;;;;;10.90;99.90;;;;;;6211839;23;19975;-86
2023/04/08 06:23:25;;;;;;;;;;;11.50;99.90;;;;;;6212583;23;19912;-86
2023/04/08 06:25:52;;;;;;;;;;;12.10;99.90;;;;;;6211016;23;19908;-86
2023/04/08 06:28:17;;;;;;;;;;;12.60;99.90;;;;;;6210978;23;19911;-87
2023/04/08 06:30:43;;;;;;;;;;;13.00;99.90;;;;;;6211092;23;19908;-85
2023/04/08 06:33:08;;;;;;;;;;;13.40;99.90;;;;;;6212235;23;19983;-83
2023/04/08 06:35:36;;;;;;;;;;;13.70;99.90;;;;;;6211491;23;19912;-85
2023/04/08 06:38:01;;;;;;;;;;;14.10;99.90;;;;;;6210634;23;19994;-84
2023/04/08 06:40:27;;;;;;;;;;;14.40;99.90;;;;;;6212193;23;19908;-88
2023/04/08 06:42:53;;;;;;;;;;;14.70;99.90;;;;;;6209059;23;19919;-86
2023/04/08 06:45:18;;;;;;;;;;;14.90;99.90;;;;;;6211492;23;19947;-84
2023/04/08 06:47:44;;;;;;;;;;;15.10;99.90;;;;;;6210956;23;19908;-87
2023/04/08 06:50:09;;;;;;;;;;;15.40;99.90;;;;;;6210859;23;19972;-86
2023/04/08 06:52:35;;;;;;;;;;;15.50;99.90;;;;;;6209787;23;19984;-85
2023/04/08 06:55:00;;;;;;;;;;;15.70;99.90;;;;;;6203173;23;19904;-86
2023/04/08 06:57:26;;;;;;;;;;;15.90;99.90;;;;;;6210079;23;19908;-84
2023/04/08 06:59:52;;;;;;;;;;;16.00;99.90;;;;;;6212010;23;19983;-85
2023/04/08 07:02:18;;;;;;;;;;;16.10;99.90;;;;;;6210056;23;20385;-84
2023/04/08 07:04:43;;;;;;;;;;;16.20;99.90;;;;;;6209758;23;19960;-85
2023/04/08 07:07:09;;;;;;;;;;;16.30;99.90;;;;;;6209829;23;19908;-84
2023/04/08 07:09:35;;;;;;;;;;;16.40;99.90;;;;;;6209717;23;20034;-84
2023/04/08 07:12:02;;;;;;;;;;;16.50;99.90;;;;;;6209930;23;19908;-83
2023/04/08 07:14:28;;;;;;;;;;;16.60;99.90;;;;;;6209417;23;19904;-83
2023/04/08 07:16:55;;;;;;;;;;;16.70;99.90;;;;;;6210357;23;20305;-87
2023/04/08 07:19:21;;;;;;;;;;;16.80;99.90;;;;;;6210672;23;20332;-84
2023/04/08 07:21:47;;;;;;;;;;;16.80;99.90;;;;;;6234589;23;19939;-81
2023/04/08 07:24:12;;;;;;;;;;;16.90;99.90;;;;;;6210420;23;19971;-80
2023/04/08 07:26:38;;;;;;;;;;;16.90;99.90;;;;;;6210059;23;19914;-82
2023/04/08 07:29:04;;;;;;;;;;;17.00;99.90;;;;;;6209461;23;20260;-85
2023/04/08 07:31:29;;;;;;;;;;;17.00;99.90;;;;;;6210965;23;19926;-86
2023/04/08 07:33:55;;;;;;;;;;;17.10;99.90;;;;;;6209550;23;19904;-84
2023/04/08 07:36:20;;;;;;;;;;;17.10;99.90;;;;;;6208569;23;19904;-84
2023/04/08 07:38:46;;;;;;;;;;;17.10;99.90;;;;;;6209817;23;19904;-83
2023/04/08 07:41:12;;;;;;;;;;;17.20;99.90;;;;;;6213043;23;19904;-85
2023/04/08 07:43:38;;;;;;;;;;;17.20;99.90;;;;;;6234223;23;20400;-84
2023/04/08 07:46:04;;;;;;;;;;;17.20;99.90;;;;;;6210239;23;19908;-84
2023/04/08 07:48:29;;;;;;;;;;;17.30;99.90;;;;;;6211434;23;19904;-85
2023/04/08 07:50:55;;;;;;;;;;;17.30;99.90;;;;;;6210424;23;19962;-83
2023/04/08 07:53:22;;;;;;;;;;;17.40;99.90;;;;;;6207837;23;19911;-84
2023/04/08 07:55:47;;;;;;;;;;;17.40;99.90;;;;;;6210058;23;19987;-84
2023/04/08 07:58:13;;;;;;;;;;;17.40;99.90;;;;;;6210642;23;19904;-87
2023/04/08 08:00:39;;;;;;;;;;;17.40;99.90;;;;;;6210089;23;19951;-84
2023/04/08 08:03:05;;;;;;;;;;;17.50;99.90;;;;;;6210817;23;19923;-83
2023/04/08 08:05:30;;;;;;;;;;;17.40;99.90;;;;;;6212045;23;19904;-84
2023/04/08 08:07:56;;;;;;;;;;;17.50;99.90;;;;;;6210182;23;19904;-84
2023/04/08 08:10:21;;;;;;;;;;;17.50;99.90;;;;;;6210684;23;20629;-85
2023/04/08 08:12:47;;;;;;;;;;;17.50;99.90;;;;;;6210420;23;19946;-85
2023/04/08 08:15:13;;;;;;;;;;;17.50;99.90;;;;;;6210672;23;19983;-86
2023/04/08 08:17:39;;;;;;;;;;;17.50;99.90;;;;;;6209022;23;19907;-85
2023/04/08 08:20:05;;;;;;;;;;;17.60;99.90;;;;;;6212805;23;20303;-84
2023/04/08 08:22:30;;;;;;;;;;;17.60;99.90;;;;;;6212067;23;19907;-85
2023/04/08 08:24:56;;;;;;;;;;;17.60;99.90;;;;;;6212626;23;20226;-88
2023/04/08 08:27:22;;;;;;;;;;;17.60;99.90;;;;;;6212631;23;19923;-88
2023/04/08 08:29:47;;;;;;;;;;;17.60;99.90;;;;;;6212662;23;19948;-87
2023/04/08 08:32:13;;;;;;;;;;;17.60;99.90;;;;;;6212385;23;19904;-88
2023/04/08 08:34:38;;;;;;;;;;;17.60;99.90;;;;;;6212522;23;19951;-87
2023/04/08 08:37:04;;;;;;;;;;;17.70;99.90;;;;;;6213692;23;19987;-86
2023/04/08 08:39:29;;;;;;;;;;;17.70;99.90;;;;;;6212972;23;19907;-86
2023/04/08 08:41:55;;;;;;;;;;;17.70;99.90;;;;;;6212349;23;19935;-87
2023/04/08 08:44:21;;;;;;;;;;;17.70;99.90;;;;;;6212468;23;19931;-89
2023/04/08 08:46:47;;;;;;;;;;;17.80;99.90;;;;;;6211758;23;19903;-88
2023/04/08 08:49:14;;;;;;;;;;;17.80;99.90;;;;;;6211353;23;19904;-86
2023/04/08 08:51:40;;;;;;;;;;;17.80;99.90;;;;;;6209569;23;19990;-84
2023/04/08 08:54:07;;;;;;;;;;;17.80;99.90;;;;;;6211174;23;20279;-85
2023/04/08 08:56:33;;;;;;;;;;;17.70;99.90;;;;;;6211972;23;20272;-86
2023/04/08 08:58:58;;;;;;;;;;;17.80;99.90;;;;;;6211226;23;19911;-84
2023/04/08 09:01:37;;;;;;;;;;;17.80;99.90;;;;;;6211215;23;20281;-85
2023/04/08 09:04:10;;;;;;;;;;;17.80;99.90;;;;;;6211917;23;19912;-85
2023/04/08 09:06:36;;;;;;;;;;;17.80;99.90;;;;;;6211650;23;19915;-85
2023/04/08 09:09:04;;;;;;;;;;;17.80;99.90;;;;;;6210545;23;19904;-85
2023/04/08 09:11:30;;;;;;;;;;;17.80;99.90;;;;;;6211939;23;19904;-83
2023/04/08 09:13:56;;;;;;;;;;;17.80;99.90;;;;;;6212154;23;19915;-88
2023/04/08 09:16:22;;;;;;;;;;;17.80;99.90;;;;;;6210321;23;19932;-85
2023/04/08 09:18:48;;;;;;;;;;;17.90;99.90;;;;;;6212380;23;19904;-85
2023/04/08 09:21:15;;;;;;;;;;;17.90;99.90;;;;;;6212068;23;20270;-85
2023/04/08 09:23:41;;;;;;;;;;;17.90;99.90;;;;;;6208798;23;19998;-86
2023/04/08 09:26:11;;;;;;;;;;;17.90;99.90;;;;;;6234676;23;20279;-86
2023/04/08 09:28:37;;;;;;;;;;;17.90;99.90;;;;;;6208659;23;19987;-86
2023/04/08 09:31:21;;;;;;;;;;;17.90;99.90;;;;;;6211987;23;19943;-86
2023/04/08 09:33:48;;;;;;;;;;;17.90;99.90;;;;;;6211535;23;19939;-87
2023/04/08 09:36:14;;;;;;;;;;;17.90;99.90;;;;;;6212387;23;20292;-84
2023/04/08 09:38:40;;;;;;;;;;;17.90;99.90;;;;;;6211831;23;19904;-85
2023/04/08 09:41:06;;;;;;;;;;;18.00;99.90;;;;;;6213435;23;19904;-88
2023/04/08 09:43:35;;;;;;;;;;;18.00;99.90;;;;;;6212856;23;19912;-89
2023/04/08 09:46:03;;;;;;;;;;;18.00;99.90;;;;;;6211192;23;19982;-86
2023/04/08 09:48:31;;;;;;;;;;;18.00;99.90;;;;;;6210203;23;19904;-84
2023/04/08 09:50:58;;;;;;;;;;;18.00;99.90;;;;;;6209959;23;19908;-85
2023/04/08 09:53:34;;;;;;;;;;;18.10;99.90;;;;;;6210701;23;19911;-84
2023/04/08 09:56:01;;;;;;;;;;;18.00;99.90;;;;;;6210531;23;19930;-83
2023/04/08 09:58:37;;;;;;;;;;;18.10;99.90;;;;;;6208795;23;20646;-83
2023/04/08 10:01:03;;;;;;;;;;;18.10;99.90;;;;;;6210410;23;19910;-83
2023/04/08 10:03:32;;;;;;;;;;;18.10;99.90;;;;;;6208205;23;19911;-85
2023/04/08 10:06:00;;;;;;;;;;;18.20;99.90;;;;;;6211067;23;19926;-83
2023/04/08 10:08:25;;;;;;;;;;;18.20;99.90;;;;;;6210961;23;19907;-83
2023/04/08 10:10:52;;;;;;;;;;;18.20;99.90;;;;;;6210598;23;20076;-83
2023/04/08 10:13:18;;;;;;;;;;;18.20;99.90;;;;;;6208053;23;19904;-86
2023/04/08 10:15:46;;;;;;;;;;;18.20;99.90;;;;;;6209794;23;19957;-85
2023/04/08 10:18:13;;;;;;;;;;;18.20;99.90;;;;;;6208835;23;19942;-84
2023/04/08 10:20:38;;;;;;;;;;;18.20;99.90;;;;;;6233857;23;19987;-83
2023/04/08 10:23:04;;;;;;;;;;;18.20;99.90;;;;;;6211492;23;19955;-84
2023/04/08 10:25:36;;;;;;;;;;;18.20;99.90;;;;;;6211165;23;20300;-82
2023/04/08 10:28:16;;;;;;;;;;;18.20;99.90;;;;;;6211952;23;19935;-83
2023/04/08 10:30:43;;;;;;;;;;;18.20;99.90;;;;;;6234731;23;19904;-87
2023/04/08 10:33:15;;;;;;;;;;;18.20;99.90;;;;;;6211834;23;19904;-85
2023/04/08 10:35:48;;;;;;;;;;;18.20;99.90;;;;;;6211492;23;19904;-85
2023/04/08 10:38:15;;;;;;;;;;;18.20;99.90;;;;;;6211896;23;19936;-85
2023/04/08 10:40:41;;;;;;;;;;;18.20;99.90;;;;;;6209057;23;19910;-87
2023/04/08 10:43:07;;;;;;;;;;;18.20;99.90;;;;;;6212380;23;19938;-83
2023/04/08 10:45:34;;;;;;;;;;;18.20;99.90;;;;;;6210450;23;20426;-85
2023/04/08 10:48:28;;;;;;;;;;;18.30;99.90;;;;;;6205297;23;19904;-81
2023/04/08 10:50:55;;;;;;;;;;;18.30;99.90;;;;;;6202587;23;19904;-82
2023/04/08 10:53:27;;;;;;;;;;;18.30;99.90;;;;;;6210646;23;19908;-80
2023/04/08 10:55:53;;;;;;;;;;;18.30;99.90;;;;;;6210477;23;19904;-82
2023/04/08 10:58:19;;;;;;;;;;;18.30;99.90;;;;;;6210767;23;19958;-82
2023/04/08 11:00:45;;;;;;;;;;;18.30;99.90;;;;;;6209853;23;19916;-82
2023/04/08 11:03:10;;;;;;;;;;;18.30;99.90;;;;;;6233633;23;19919;-84
2023/04/08 11:05:37;;;;;;;;;;;18.30;99.90;;;;;;6211298;23;19904;-82
2023/04/08 11:08:03;;;;;;;;;;;18.30;99.90;;;;;;6211593;23;19927;-82
2023/04/08 11:10:29;;;;;;;;;;;18.20;99.90;;;;;;6210438;23;20259;-80
2023/04/08 11:12:55;;;;;;;;;;;18.20;99.90;;;;;;6210276;23;19977;-81
2023/04/08 11:15:22;;;;;;;;;;;18.20;99.90;;;;;;6210160;23;20661;-81
2023/04/08 11:17:48;;;;;;;;;;;18.20;99.90;;;;;;6210106;23;19910;-80
2023/04/08 11:20:14;;;;;;;;;;;18.20;99.90;;;;;;6209572;23;19978;-82
2023/04/08 11:22:39;;;;;;;;;;;18.20;99.90;;;;;;6209819;23;19938;-82
2023/04/08 11:25:09;;;;;;;;;;;18.20;99.90;;;;;;6210433;23;20002;-82
2023/04/08 11:27:35;;;;;;;;;;;18.20;99.90;;;;;;6210736;23;19919;-81
2023/04/08 11:30:00;;;;;;;;;;;18.20;99.90;;;;;;6209681;23;19910;-85
2023/04/08 11:32:27;;;;;;;;;;;18.20;99.90;;;;;;6210006;23;20478;-86
2023/04/08 11:34:53;;;;;;;;;;;18.20;99.90;;;;;;6209514;23;19908;-85
2023/04/08 11:37:18;;;;;;;;;;;18.20;99.90;;;;;;6210005;23;20230;-83
2023/04/08 11:39:44;;;;;;;;;;;18.20;99.90;;;;;;6210079;23;20355;-88
2023/04/08 11:42:29;;;;;;;;;;;18.20;99.90;;;;;;6215735;23;19927;-85
2023/04/08 11:44:55;;;;;;;;;;;18.30;99.90;;;;;;6213852;23;20431;-84
2023/04/08 11:47:20;;;;;;;;;;;18.30;99.90;;;;;;6209463;23;19908;-84
2023/04/08 11:49:46;;;;;;;;;;;18.30;99.90;;;;;;6209959;23;19904;-84
2023/04/08 11:52:12;;;;;;;;;;;18.30;99.90;;;;;;6209877;23;19904;-84
2023/04/08 11:54:41;;;;;;;;;;;18.30;99.90;;;;;;6209451;23;20321;-85
2023/04/08 11:57:08;;;;;;;;;;;18.40;99.90;;;;;;6210185;23;20244;-83
2023/04/08 11:59:37;;;;;;;;;;;18.40;99.90;;;;;;6210196;23;19911;-84
2023/04/08 12:02:03;;;;;;;;;;;18.40;99.90;;;;;;6210904;23;19904;-85
2023/04/08 12:04:29;;;;;;;;;;;18.40;99.90;;;;;;6209882;23;20007;-84
2023/04/08 12:06:54;;;;;;;;;;;18.40;99.90;;;;;;6211374;23;19904;-87
2023/04/08 12:09:21;;;;;;;;;;;18.40;99.90;;;;;;6210745;23;19908;-86
2023/04/08 12:11:46;;;;;;;;;;;18.40;99.90;;;;;;6209688;23;19907;-84
2023/04/08 12:14:12;;;;;;;;;;;18.40;99.90;;;;;;6209918;23;20240;-85
2023/04/08 12:16:37;;;;;;;;;;;18.40;99.90;;;;;;6233374;23;19927;-85
2023/04/08 12:19:03;;;;;;;;;;;18.50;99.90;;;;;;6210353;23;19999;-84
2023/04/08 12:21:28;;;;;;;;;;;18.40;99.90;;;;;;6209432;23;19911;-86
2023/04/08 12:23:54;;;;;;;;;;;18.40;99.90;;;;;;6209065;23;20022;-85
2023/04/08 12:26:19;;;;;;;;;;;18.40;99.90;;;;;;6209756;23;20249;-87
2023/04/08 12:28:45;;;;;;;;;;;18.40;99.90;;;;;;6209262;23;19990;-84
2023/04/08 12:31:11;;;;;;;;;;;18.40;99.90;;;;;;6209377;23;19904;-84
2023/04/08 12:33:37;;;;;;;;;;;18.40;99.90;;;;;;6210107;23;19911;-84
2023/04/08 12:36:02;;;;;;;;;;;18.40;99.90;;;;;;6210628;23;20390;-84
2023/04/08 12:38:28;;;;;;;;;;;18.40;99.90;;;;;;6209487;23;19904;-85
2023/04/08 12:40:54;;;;;;;;;;;18.40;99.90;;;;;;6206445;23;19904;-84
2023/04/08 12:43:19;;;;;;;;;;;18.40;99.90;;;;;;6208779;23;19915;-85
2023/04/08 12:45:45;;;;;;;;;;;18.40;99.90;;;;;;6209015;23;20352;-85
2023/04/08 12:48:11;;;;;;;;;;;18.40;99.90;;;;;;6209210;23;19908;-83
2023/04/08 12:50:36;;;;;;;;;;;18.40;99.90;;;;;;6210192;23;19911;-84
2023/04/08 12:53:02;;;;;;;;;;;18.40;99.90;;;;;;6208900;23;20244;-88
2023/04/08 12:55:30;;;;;;;;;;;18.40;99.90;;;;;;6208777;23;20330;-91
2023/04/08 12:57:55;;;;;;;;;;;18.30;99.90;;;;;;6210090;23;19931;-88
2023/04/08 13:00:21;;;;;;;;;;;18.20;99.90;;;;;;6210229;23;20308;-87
2023/04/08 13:02:46;;;;;;;;;;;18.10;99.90;;;;;;6207309;23;19983;-85
2023/04/08 13:05:12;;;;;;;;;;;18.00;99.90;;;;;;6210054;23;20244;-83
2023/04/08 13:07:38;;;;;;;;;;;17.90;99.90;;;;;;6210779;23;19908;-88
2023/04/08 13:10:05;;;;;;;;;;;17.90;99.90;;;;;;6210940;23;19907;-80
2023/04/08 13:12:31;;;;;;;;;;;17.90;99.90;;;;;;6209122;23;19936;-80
2023/04/08 13:14:57;;;;;;;;;;;17.90;99.90;;;;;;6209625;23;19966;-77
2023/04/08 13:17:22;;;;;;;;;;;17.80;99.90;;;;;;6209612;23;19962;-78
2023/04/08 13:19:49;;;;;;;;;;;17.80;99.90;;;;;;6209501;23;19915;-78
2023/04/08 13:22:15;;;;;;;;;;;17.80;99.90;;;;;;6209699;23;20248;-77
2023/04/08 13:24:40;;;;;;;;;;;17.80;99.90;;;;;;6209658;23;19990;-76
2023/04/08 13:27:06;;;;;;;;;;;17.90;99.90;;;;;;6210595;23;19915;-75
2023/04/08 13:29:31;;;;;;;;;;;17.80;99.90;;;;;;6208388;23;19935;-75
2023/04/08 13:31:57;;;;;;;;;;;17.80;99.90;;;;;;6209275;23;19908;-75
2023/04/08 13:34:22;;;;;;;;;;;17.90;99.90;;;;;;6209649;23;19911;-77
2023/04/08 13:36:48;;;;;;;;;;;17.90;99.90;;;;;;6209260;23;19912;-77
2023/04/08 13:39:13;;;;;;;;;;;17.90;99.90;;;;;;6209241;23;20035;-76
2023/04/08 13:41:39;;;;;;;;;;;17.90;99.90;;;;;;6209270;23;19908;-74
2023/04/08 13:44:04;;;;;;;;;;;17.90;99.90;;;;;;6210111;23;19912;-75
2023/04/08 13:46:30;;;;;;;;;;;17.90;99.90;;;;;;6209250;23;19903;-80
2023/04/08 13:48:55;;;;;;;;;;;17.90;99.90;;;;;;6209605;23;20351;-80
2023/04/08 13:51:21;;;;;;;;;;;;;;;;;;6210750;23;19987;-79
2023/04/08 13:53:50;;;;;;;;;;;;;;;;;;6210678;23;19911;-83
2023/04/08 13:56:15;;;;;;;;;;;18.00;99.90;;;;;;6210228;23;20043;-81
2023/04/08 13:58:41;;;;;;;;;;;18.00;99.90;;;;;;6210664;23;20346;-84
2023/04/08 14:01:06;;;;;;;;;;;18.00;99.90;;;;;;6211541;23;20325;-84
2023/04/08 14:03:32;;;;;;;;;;;18.10;99.90;;;;;;6211918;23;19916;-83
2023/04/08 14:05:57;;;;;;;;;;;18.00;99.90;;;;;;6211079;23;19911;-81
2023/04/08 14:08:26;;;;;;;;;;;18.10;99.90;;;;;;6210910;23;19987;-81
2023/04/08 14:10:52;;;;;;;;;;;18.10;99.90;;;;;;6210101;23;19904;-84
2023/04/08 14:13:17;;;;;;;;;;;18.20;99.90;;;;;;6209862;23;19962;-83
2023/04/08 14:15:43;;;;;;;;;;;18.10;99.90;;;;;;6209566;23;20295;-82
2023/04/08 14:18:08;;;;;;;;;;;18.20;99.90;;;;;;6208988;23;19986;-83